createdAt,value
2022-11-21T00:03:22.288Z,84.14
2022-11-21T00:08:25.225Z,84.11
2022-11-21T00:13:28.127Z,84.01
2022-11-21T00:18:31.091Z,83.96
2022-11-21T00:23:34.384Z,83.72
2022-11-21T00:28:37.805Z,83.79
2022-11-21T00:33:40.706Z,83.81
2022-11-21T00:38:43.684Z,83.77
2022-11-21T00:43:46.679Z,83.68
2022-11-21T00:48:49.541Z,83.64
2022-11-21T00:53:52.455Z,83.90
2022-11-21T00:58:55.355Z,83.93
2022-11-21T01:03:59.385Z,83.86
2022-11-21T01:09:02.350Z,83.97
2022-11-21T01:14:05.616Z,83.96
2022-11-21T01:19:08.776Z,83.86
2022-11-21T01:24:12.649Z,83.67
2022-11-21T01:29:15.546Z,83.88
2022-11-21T01:34:18.865Z,83.99
2022-11-21T01:39:21.781Z,84.26
2022-11-21T01:44:45.918Z,84.58
2022-11-21T01:49:49.743Z,84.61
2022-11-21T01:55:08.740Z,84.46
2022-11-21T02:00:23.273Z,84.39
2022-11-21T02:05:33.469Z,84.38
2022-11-21T02:10:39.858Z,84.25
2022-11-21T02:15:43.137Z,84.14
2022-11-21T02:20:55.265Z,84.04
2022-11-21T02:25:59.468Z,84.08
2022-11-21T02:31:02.782Z,84.08
2022-11-21T02:36:35.681Z,84.76
2022-11-21T02:42:06.138Z,85.36
2022-11-21T02:47:09.345Z,85.48
2022-11-21T02:52:12.241Z,85.54
2022-11-21T02:57:15.244Z,85.27
2022-11-21T03:02:18.323Z,84.94
2022-11-21T03:07:21.206Z,85.00
2022-11-21T03:12:24.434Z,85.36
2022-11-21T03:17:27.334Z,85.78
2022-11-21T03:22:30.202Z,86.22
2022-11-21T03:27:33.166Z,86.07
2022-11-21T03:32:36.077Z,86.00
2022-11-21T03:37:39.001Z,85.91
2022-11-21T03:42:41.995Z,85.80
2022-11-21T03:47:44.906Z,85.76
2022-11-21T03:52:47.801Z,85.87
2022-11-21T03:57:50.643Z,85.93
2022-11-21T04:02:53.549Z,85.78
2022-11-21T04:07:56.485Z,85.62
2022-11-21T04:12:59.397Z,85.47
2022-11-21T04:18:02.253Z,85.51
2022-11-21T04:23:06.076Z,85.50
2022-11-21T04:28:14.124Z,85.61
2022-11-21T04:33:19.073Z,85.92
2022-11-21T04:38:21.925Z,86.06
2022-11-21T04:43:24.775Z,86.04
2022-11-21T04:48:27.727Z,85.93
2022-11-21T04:53:30.737Z,85.90
2022-11-21T04:58:33.908Z,86.04
2022-11-21T05:03:37.178Z,86.32
2022-11-21T05:08:40.047Z,86.57
2022-11-21T05:13:42.961Z,86.58
2022-11-21T05:18:45.927Z,86.52
2022-11-21T05:23:49.033Z,86.57
2022-11-21T05:28:52.075Z,86.65
2022-11-21T05:33:55.224Z,86.81
2022-11-21T05:38:58.345Z,86.92
2022-11-21T05:44:01.439Z,87.14
2022-11-21T05:49:04.610Z,87.08
2022-11-21T05:54:07.480Z,86.97
2022-11-21T05:59:13.407Z,86.85
2022-11-21T06:04:16.344Z,86.77
2022-11-21T06:09:19.231Z,86.96
2022-11-21T06:14:22.053Z,86.93
2022-11-21T06:19:24.913Z,86.78
2022-11-21T06:24:28.006Z,86.68
2022-11-21T06:29:31.168Z,86.67
2022-11-21T06:34:34.255Z,86.65
2022-11-21T06:39:37.210Z,86.68
2022-11-21T06:44:40.274Z,86.67
2022-11-21T06:49:43.099Z,86.75
2022-11-21T06:54:45.948Z,86.79
2022-11-21T06:59:48.798Z,86.65
2022-11-21T07:04:51.667Z,86.49
2022-11-21T07:09:54.572Z,86.40
2022-11-21T07:14:57.485Z,86.21
2022-11-21T07:20:00.354Z,86.17
2022-11-21T07:25:04.197Z,86.01
2022-11-21T07:30:08.647Z,85.75
2022-11-21T07:35:11.640Z,85.61
2022-11-21T07:40:14.964Z,85.31
2022-11-21T07:45:18.220Z,85.39
2022-11-21T07:50:21.114Z,85.40
2022-11-21T07:55:24.300Z,85.39
2022-11-21T08:00:29.140Z,84.96
2022-11-21T08:05:32.005Z,84.78
2022-11-21T08:10:42.836Z,84.79
2022-11-21T08:15:45.933Z,84.85
2022-11-21T08:20:49.892Z,84.18
2022-11-21T08:25:53.173Z,84.21
2022-11-21T08:30:56.585Z,83.51
2022-11-21T08:35:59.505Z,83.57
2022-11-21T08:41:21.156Z,83.57
2022-11-21T08:46:27.552Z,83.32
2022-11-21T08:51:31.225Z,82.97
2022-11-21T08:56:34.136Z,82.89
2022-11-21T09:01:38.544Z,82.81
2022-11-21T09:06:41.629Z,82.64
2022-11-21T09:11:45.919Z,81.75
2022-11-21T09:17:07.708Z,82.06
2022-11-21T09:22:10.998Z,81.81
2022-11-21T09:27:14.265Z,81.79
2022-11-21T09:32:17.694Z,81.16
2022-11-21T09:37:20.679Z,81.57
2022-11-21T09:42:48.777Z,80.63
2022-11-21T09:47:53.197Z,80.68
2022-11-21T09:53:14.091Z,80.78
2022-11-21T09:58:29.963Z,80.57
2022-11-21T10:04:26.463Z,80.57
2022-11-21T10:10:05.712Z,79.57
2022-11-21T10:15:41.651Z,79.56
2022-11-21T10:21:10.018Z,79.20
2022-11-21T10:26:28.761Z,79.43
2022-11-21T10:31:40.852Z,79.19
2022-11-21T10:36:54.861Z,79.10
2022-11-21T10:42:37.127Z,79.21
2022-11-21T10:47:40.356Z,79.36
2022-11-21T10:52:50.041Z,79.43
2022-11-21T10:57:55.082Z,79.67
2022-11-21T11:03:05.117Z,79.44
2022-11-21T11:08:14.572Z,79.71
2022-11-21T11:19:29.804Z,80.04
2022-11-21T11:24:35.936Z,80.01
2022-11-21T11:29:53.159Z,79.82
2022-11-21T11:35:05.156Z,80.08
2022-11-21T11:40:29.188Z,79.82
2022-11-21T11:46:12.811Z,79.96
2022-11-21T11:51:29.970Z,79.37
2022-11-21T11:56:38.402Z,79.71
2022-11-21T12:02:25.902Z,79.72
2022-11-21T12:08:38.989Z,79.92
2022-11-21T12:13:14.226Z,79.79
2022-11-21T12:18:20.122Z,79.44
2022-11-21T12:23:32.247Z,79.15
2022-11-21T12:29:07.583Z,79.15
2022-11-21T12:34:44.504Z,79.21
2022-11-21T12:40:26.535Z,79.44
2022-11-21T12:45:36.803Z,79.46
2022-11-21T12:51:22.884Z,79.43
2022-11-21T12:57:11.807Z,79.66
2022-11-21T13:02:47.061Z,79.92
2022-11-21T13:07:59.455Z,79.90
2022-11-21T13:13:32.507Z,79.79
2022-11-21T13:18:49.838Z,79.69
2022-11-21T13:23:52.748Z,79.76
2022-11-21T13:29:11.765Z,79.86
2022-11-21T13:34:39.518Z,80.01
2022-11-21T13:39:48.038Z,80.35
2022-11-21T13:44:52.506Z,80.68
2022-11-21T13:50:34.388Z,81.13
2022-11-21T13:56:02.943Z,81.60
2022-11-21T14:01:33.210Z,81.88
2022-11-21T14:06:45.024Z,82.29
2022-11-21T14:12:01.297Z,82.31
2022-11-21T14:17:49.756Z,82.25
2022-11-21T14:23:04.877Z,82.54
2022-11-21T14:28:33.967Z,82.99
2022-11-21T14:33:43.089Z,83.16
2022-11-21T14:39:35.536Z,83.43
2022-11-21T14:44:26.785Z,84.06
2022-11-21T14:49:30.470Z,84.08
2022-11-21T14:55:28.103Z,84.24
2022-11-21T15:11:09.350Z,85.21
2022-11-21T15:16:13.613Z,85.77
2022-11-21T15:21:17.104Z,86.31
2022-11-21T15:26:33.964Z,86.73
2022-11-21T15:31:37.511Z,86.92
2022-11-21T15:36:40.589Z,86.47
2022-11-21T15:41:43.818Z,86.73
2022-11-21T15:46:50.961Z,87.12
2022-11-21T15:52:10.611Z,87.47
2022-11-21T15:57:16.849Z,87.63
2022-11-21T16:02:20.472Z,87.81
2022-11-21T16:07:23.464Z,87.93
2022-11-21T16:12:26.377Z,87.76
2022-11-21T16:17:29.347Z,87.49
2022-11-21T16:22:32.386Z,87.69
2022-11-21T16:27:35.501Z,88.06
2022-11-21T16:32:38.581Z,88.24
2022-11-21T16:37:41.621Z,88.42
2022-11-21T16:42:44.524Z,88.56
2022-11-21T16:47:49.111Z,88.61
2022-11-21T16:52:52.306Z,88.72
2022-11-21T16:57:58.038Z,88.73
2022-11-21T17:03:01.687Z,88.77
2022-11-21T17:08:04.757Z,88.69
2022-11-21T17:13:07.645Z,88.57
2022-11-21T17:18:11.156Z,88.50
2022-11-21T17:23:14.121Z,88.44
2022-11-21T17:28:17.130Z,88.28
2022-11-21T17:33:21.598Z,88.19
2022-11-21T17:38:24.641Z,88.18
2022-11-21T17:43:28.380Z,88.13
2022-11-21T17:48:36.163Z,88.10
2022-11-21T17:53:43.751Z,87.93
2022-11-21T17:58:47.286Z,87.86
2022-11-21T18:04:01.328Z,87.95
2022-11-21T18:09:07.007Z,87.99
2022-11-21T18:14:12.135Z,88.01
2022-11-21T18:19:15.119Z,88.00
2022-11-21T18:24:18.122Z,87.93
2022-11-21T18:29:38.472Z,87.78
2022-11-21T18:34:41.566Z,87.81
2022-11-21T18:39:44.484Z,87.94
2022-11-21T18:44:47.402Z,87.99
2022-11-21T18:49:50.395Z,88.09
2022-11-21T18:54:53.760Z,88.19
2022-11-21T18:59:57.087Z,88.14
2022-11-21T19:04:59.960Z,88.06
2022-11-21T19:10:27.694Z,88.03
2022-11-21T19:15:26.138Z,88.03
2022-11-21T19:20:29.008Z,87.97
2022-11-21T19:25:32.845Z,87.84
2022-11-21T19:30:36.524Z,87.96
2022-11-21T19:35:39.431Z,87.92
2022-11-21T19:41:01.044Z,87.79
2022-11-21T19:46:04.612Z,87.61
2022-11-21T19:51:08.822Z,87.48
2022-11-21T19:56:20.483Z,87.54
2022-11-21T20:01:30.017Z,87.55
2022-11-21T20:06:42.399Z,87.53
2022-11-21T20:11:50.731Z,87.41
2022-11-21T20:16:54.204Z,87.13
2022-11-21T20:21:57.323Z,87.00
2022-11-21T20:27:00.505Z,87.12
2022-11-21T20:32:03.869Z,86.89
2022-11-21T20:37:06.852Z,86.69
2022-11-21T20:42:09.723Z,86.86
2022-11-21T20:47:12.740Z,86.68
2022-11-21T20:57:38.593Z,86.40
2022-11-21T21:02:41.717Z,86.56
2022-11-21T21:07:44.667Z,86.53
2022-11-21T21:12:48.865Z,86.37
2022-11-21T21:17:51.862Z,86.49
2022-11-21T21:22:55.794Z,86.67
2022-11-21T21:27:58.725Z,86.75
2022-11-21T21:33:01.839Z,86.58
2022-11-21T21:38:08.830Z,86.67
2022-11-21T21:43:12.068Z,86.88
2022-11-21T21:48:15.696Z,86.86
2022-11-21T21:53:18.577Z,86.70
2022-11-21T21:58:21.488Z,86.60
2022-11-21T22:03:24.465Z,86.68
2022-11-21T22:08:27.650Z,86.84
2022-11-21T22:13:31.663Z,86.64
2022-11-21T22:18:35.284Z,86.65
2022-11-21T22:23:46.637Z,86.72
2022-11-21T22:29:00.990Z,86.61
2022-11-21T22:34:03.938Z,86.42
2022-11-21T22:39:07.315Z,86.39
2022-11-21T22:44:10.415Z,86.46
2022-11-21T22:49:14.534Z,86.36
2022-11-21T22:54:17.701Z,86.25
2022-11-21T22:59:20.558Z,86.50
2022-11-21T23:04:23.397Z,86.64
2022-11-21T23:09:26.778Z,86.67
2022-11-21T23:14:30.269Z,86.61
2022-11-21T23:19:33.386Z,86.60
2022-11-21T23:24:36.313Z,86.67
2022-11-21T23:29:39.249Z,86.70
2022-11-21T23:34:42.145Z,86.62
2022-11-21T23:39:45.021Z,86.59
2022-11-21T23:44:47.995Z,86.71
2022-11-21T23:49:51.005Z,86.82
2022-11-21T23:54:53.866Z,86.86
2022-11-21T23:59:56.906Z,86.68
